Time;durP1;ratioP1;P1;durP2;ratioP2;P2;SDS_P1;SDS_P2;PMS_P1;PMS_P2;Temp;Humidity;BMP_temperature;BMP_pressure;BME280_temperature;BME280_humidity;BME280_pressure;Samples;Min_cycle;Max_cycle;Signal;HPM_P1;HPM_P2
2022/10/15 00:02:11;;;;;;;;;;;;;;;12.83;100.00;95863.84;5096529;28;20032;-74
2022/10/15 00:04:37;;;;;;;;;;;;;;;12.84;100.00;95857.56;5095410;28;19960;-74
2022/10/15 00:07:02;;;;;;;;;;;;;;;12.84;100.00;95865.44;5096885;28;19961;-74
2022/10/15 00:09:28;;;;;;;;;;;;;;;12.83;100.00;95864.66;5096491;28;20052;-73
2022/10/15 00:11:54;;;;;;;;;;;;;;;12.85;100.00;95862.59;5096522;28;19999;-74
2022/10/15 00:14:20;;;;;;;;;;;;;;;12.85;100.00;95859.94;5096443;28;20045;-74
2022/10/15 00:16:46;;;;;;;;;;;;;;;12.86;100.00;95861.53;5096407;28;20334;-74
2022/10/15 00:19:12;;;;;;;;;;;;;;;12.87;100.00;95862.31;5096322;28;20056;-73
2022/10/15 00:21:38;;;;;;;;;;;;;;;12.89;100.00;95858.41;5096320;28;19999;-74
2022/10/15 00:24:04;;;;;;;;;;;;;;;12.92;100.00;95863.16;5096397;28;19976;-74
2022/10/15 00:26:30;;;;;;;;;;;;;;;12.94;100.00;95870.81;5096237;28;19949;-74
2022/10/15 00:28:58;;;;;;;;;;;;;;;12.95;100.00;95867.16;5094996;28;19969;-74
2022/10/15 00:31:25;;;;;;;;;;;;;;;12.93;100.00;95864.75;5095975;28;19953;-73
2022/10/15 00:33:52;;;;;;;;;;;;;;;12.94;100.00;95865.56;5096399;28;19957;-73
2022/10/15 00:36:20;;;;;;;;;;;;;;;12.95;100.00;95862.66;5096165;28;19972;-73
2022/10/15 00:38:46;;;;;;;;;;;;;;;12.94;100.00;95869.00;5094825;28;19950;-73
2022/10/15 00:41:14;;;;;;;;;;;;;;;12.96;100.00;95860.84;5096021;28;19959;-72
2022/10/15 00:43:47;;;;;;;;;;;;;;;12.96;100.00;95864.28;5095915;28;19948;-74
2022/10/15 00:46:22;;;;;;;;;;;;;;;12.99;100.00;95860.34;5095752;28;19968;-73
2022/10/15 00:48:49;;;;;;;;;;;;;;;13.02;100.00;95861.69;5095968;28;19965;-73
2022/10/15 00:51:16;;;;;;;;;;;;;;;13.00;100.00;95852.22;5095209;28;19957;-74
2022/10/15 00:53:42;;;;;;;;;;;;;;;13.02;100.00;95851.97;5096054;28;19958;-73
2022/10/15 00:56:08;;;;;;;;;;;;;;;13.03;100.00;95855.38;5095450;28;19961;-74
2022/10/15 00:58:35;;;;;;;;;;;;;;;13.01;100.00;95850.38;5095409;28;19964;-73
2022/10/15 01:01:01;;;;;;;;;;;;;;;13.02;100.00;95845.88;5094654;28;19964;-73
2022/10/15 01:03:27;;;;;;;;;;;;;;;13.02;100.00;95840.63;5095303;28;19953;-72
2022/10/15 01:05:53;;;;;;;;;;;;;;;13.03;100.00;95844.88;5095592;28;19962;-73
2022/10/15 01:08:19;;;;;;;;;;;;;;;13.04;100.00;95838.53;5095375;28;19963;-73
2022/10/15 01:10:54;;;;;;;;;;;;;;;13.06;100.00;95846.97;5095610;28;19959;-73
2022/10/15 01:13:31;;;;;;;;;;;;;;;13.06;100.00;95834.63;5095434;28;20404;-73
2022/10/15 01:16:06;;;;;;;;;;;;;;;13.05;100.00;95833.03;5095169;28;19971;-75
2022/10/15 01:18:36;;;;;;;;;;;;;;;13.08;100.00;95834.38;5095417;28;19976;-74
2022/10/15 01:21:08;;;;;;;;;;;;;;;13.09;100.00;95833.34;5095147;28;19964;-73
2022/10/15 01:23:56;;;;;;;;;;;;;;;13.10;100.00;95834.91;5095099;28;19957;-74
2022/10/15 01:26:31;;;;;;;;;;;;;;;13.10;100.00;95833.09;5095235;28;19948;-73
2022/10/15 01:29:16;;;;;;;;;;;;;;;13.10;100.00;95827.03;5095040;28;19965;-73
2022/10/15 01:31:47;;;;;;;;;;;;;;;13.10;100.00;95827.03;5094810;28;19957;-73
2022/10/15 01:34:28;;;;;;;;;;;;;;;13.10;100.00;95827.03;5095351;28;19964;-74
2022/10/15 01:37:00;;;;;;;;;;;;;;;13.12;100.00;95824.94;5094569;28;19973;-73
2022/10/15 01:39:30;;;;;;;;;;;;;;;13.12;100.00;95819.66;5094797;28;19966;-74
2022/10/15 01:42:08;;;;;;;;;;;;;;;13.12;100.00;95820.50;5094651;28;19953;-73
2022/10/15 01:44:43;;;;;;;;;;;;;;;13.13;100.00;95823.91;5094083;28;19951;-73
2022/10/15 01:47:21;;;;;;;;;;;;;;;13.13;100.00;95824.69;5084221;28;19963;-73
2022/10/15 01:49:48;;;;;;;;;;;;;;;13.15;100.00;95824.44;5080937;28;19964;-74
2022/10/15 01:52:24;;;;;;;;;;;;;;;13.15;100.00;95827.09;5094384;28;20425;-74
2022/10/15 01:54:51;;;;;;;;;;;;;;;13.17;100.00;95822.38;5094479;28;19972;-74
2022/10/15 01:57:18;;;;;;;;;;;;;;;13.17;100.00;95817.88;5094420;28;19998;-73
2022/10/15 01:59:44;;;;;;;;;;;;;;;13.18;100.00;95816.81;5094355;28;19966;-74
2022/10/15 02:02:10;;;;;;;;;;;;;;;13.18;100.00;95813.41;5094614;28;19961;-74
2022/10/15 02:04:36;;;;;;;;;;;;;;;13.25;100.00;95811.38;5094130;28;19958;-74
2022/10/15 02:07:21;;;;;;;;;;;;;;;13.27;100.00;95813.75;5094398;28;19996;-74
2022/10/15 02:09:53;;;;;;;;;;;;;;;13.29;100.00;95822.22;5094201;28;19968;-74
2022/10/15 02:12:19;;;;;;;;;;;;;;;13.29;100.00;95816.94;5093930;28;19957;-74
2022/10/15 02:14:45;;;;;;;;;;;;;;;13.27;100.00;95813.75;5093643;28;19957;-74
2022/10/15 02:17:13;;;;;;;;;;;;;;;13.27;100.00;95817.19;5094290;28;19958;-74
2022/10/15 02:19:39;;;;;;;;;;;;;;;13.27;100.00;95817.19;5094042;28;19985;-75
2022/10/15 02:22:10;;;;;;;;;;;;;;;13.30;100.00;95818.56;5094096;28;20048;-73
2022/10/15 02:24:56;;;;;;;;;;;;;;;13.28;100.00;95816.13;5093304;28;19952;-74
2022/10/15 02:27:23;;;;;;;;;;;;;;;13.31;100.00;95823.59;5093669;28;20416;-74
2022/10/15 02:29:50;;;;;;;;;;;;;;;13.32;100.00;95822.53;5094061;28;19953;-74
2022/10/15 02:32:19;;;;;;;;;;;;;;;13.34;100.00;95825.69;5093285;28;19959;-73
2022/10/15 02:34:45;;;;;;;;;;;;;;;13.35;100.00;95819.38;5093782;28;19954;-76
2022/10/15 02:37:12;;;;;;;;;;;;;;;13.37;100.00;95821.78;5093736;28;19964;-74
2022/10/15 02:39:38;;;;;;;;;;;;;;;13.38;100.00;95823.38;5093698;28;19964;-74
2022/10/15 02:42:04;;;;;;;;;;;;;;;13.41;100.00;95830.75;5092765;28;20049;-74
2022/10/15 02:44:30;;;;;;;;;;;;;;;13.40;100.00;95823.91;5093655;28;19967;-74
2022/10/15 02:46:57;;;;;;;;;;;;;;;13.42;100.00;95819.19;5093834;28;19957;-72
2022/10/15 02:49:23;;;;;;;;;;;;;;;13.44;100.00;95830.28;5093447;28;19974;-74
2022/10/15 02:51:49;;;;;;;;;;;;;;;13.46;100.00;95830.00;5094325;28;19960;-73
2022/10/15 02:54:15;;;;;;;;;;;;;;;13.48;100.00;95830.53;5093578;28;20044;-73
2022/10/15 02:56:41;;;;;;;;;;;;;;;13.48;100.00;95822.66;5093552;28;20049;-74
2022/10/15 02:59:07;;;;;;;;;;;;;;;13.49;100.00;95825.03;5093814;28;20432;-74
2022/10/15 03:01:33;;;;;;;;;;;;;;;13.49;100.00;95827.66;5095717;28;19984;-75
2022/10/15 03:04:00;;;;;;;;;;;;;;;13.51;100.00;95835.31;5098390;28;20436;-74
2022/10/15 03:06:26;;;;;;;;;;;;;;;13.52;100.00;95837.72;5097684;28;20551;-74
2022/10/15 03:08:52;;;;;;;;;;;;;;;13.54;100.00;95837.44;5097877;28;19964;-74
2022/10/15 03:11:18;;;;;;;;;;;;;;;13.53;100.00;95839.28;5097537;28;19963;-74
2022/10/15 03:13:43;;;;;;;;;;;;;;;13.53;100.00;95835.88;5097848;28;20011;-74
2022/10/15 03:16:10;;;;;;;;;;;;;;;13.53;100.00;95836.66;5097594;28;19973;-74
2022/10/15 03:18:36;;;;;;;;;;;;;;;13.55;100.00;95829.31;5097297;28;19979;-74
2022/10/15 03:21:02;;;;;;;;;;;;;;;13.56;100.00;95838.00;5097563;28;20414;-74
2022/10/15 03:23:28;;;;;;;;;;;;;;;13.56;100.00;95830.88;5096722;28;19949;-74
2022/10/15 03:25:54;;;;;;;;;;;;;;;13.55;100.00;95834.56;5097671;28;19953;-74
2022/10/15 03:28:21;;;;;;;;;;;;;;;13.56;100.00;95838.00;5097234;28;20038;-73
2022/10/15 03:30:47;;;;;;;;;;;;;;;13.55;100.00;95836.41;5097354;28;19953;-73
2022/10/15 03:33:13;;;;;;;;;;;;;;;13.57;100.00;95843.00;5097171;28;19963;-73
2022/10/15 03:35:39;;;;;;;;;;;;;;;13.59;100.00;95854.09;5097337;28;20413;-73
2022/10/15 03:38:06;;;;;;;;;;;;;;;13.59;100.00;95854.09;5096716;28;19954;-73
2022/10/15 03:40:32;;;;;;;;;;;;;;;13.59;100.00;95856.72;5096408;28;19959;-73
2022/10/15 03:42:58;;;;;;;;;;;;;;;13.61;100.00;95856.50;5096921;28;19957;-73
2022/10/15 03:45:24;;;;;;;;;;;;;;;13.60;100.00;95855.66;5096590;28;20389;-73
2022/10/15 03:47:50;;;;;;;;;;;;;;;13.62;100.00;95860.69;5096766;28;20452;-73
2022/10/15 03:50:16;;;;;;;;;;;;;;;13.64;100.00;95863.88;5096920;28;19962;-73
2022/10/15 03:52:42;;;;;;;;;;;;;;;13.65;100.00;95864.66;5097457;28;20310;-73
2022/10/15 03:55:08;;;;;;;;;;;;;;;13.64;100.00;95863.09;5096838;28;20413;-73
2022/10/15 03:57:34;;;;;;;;;;;;;;;13.64;100.00;95865.72;5096547;28;19970;-73
2022/10/15 04:00:00;;;;;;;;;;;;;;;13.62;100.00;95865.97;5096571;28;19964;-73
2022/10/15 04:02:26;;;;;;;;;;;;;;;13.61;100.00;95867.03;5097328;28;19954;-73
2022/10/15 04:04:52;;;;;;;;;;;;;;;13.62;100.00;95859.91;5096801;28;19973;-73
2022/10/15 04:07:19;;;;;;;;;;;;;;;13.64;100.00;95866.50;5095448;28;19950;-73
2022/10/15 04:09:45;;;;;;;;;;;;;;;13.66;100.00;95864.41;5095960;28;19971;-73
2022/10/15 04:12:11;;;;;;;;;;;;;;;13.67;100.00;95857.31;5095547;28;20032;-74
2022/10/15 04:14:37;;;;;;;;;;;;;;;13.69;100.00;95866.56;5096330;28;19967;-73
2022/10/15 04:17:03;;;;;;;;;;;;;;;13.69;100.00;95863.13;5096505;28;19975;-73
2022/10/15 04:19:29;;;;;;;;;;;;;;;13.71;100.00;95866.28;5096567;28;19981;-73
2022/10/15 04:21:55;;;;;;;;;;;;;;;13.71;100.00;95864.47;5096750;28;20102;-73
2022/10/15 04:24:21;;;;;;;;;;;;;;;13.72;100.00;95867.91;5096359;28;20408;-73
2022/10/15 04:26:47;;;;;;;;;;;;;;;13.71;100.00;95869.75;5096299;28;20011;-74
2022/10/15 04:29:13;;;;;;;;;;;;;;;13.72;100.00;95865.25;5096219;28;20433;-74
2022/10/15 04:31:39;;;;;;;;;;;;;;;13.69;100.00;95877.09;5096602;28;20050;-74
2022/10/15 04:34:05;;;;;;;;;;;;;;;13.70;100.00;95878.69;5095979;28;19990;-74
2022/10/15 04:36:31;;;;;;;;;;;;;;;13.69;100.00;95884.19;5096297;28;20039;-74
2022/10/15 04:38:57;;;;;;;;;;;;;;;13.70;100.00;95881.31;5095756;28;19963;-74
2022/10/15 04:41:23;;;;;;;;;;;;;;;13.69;100.00;95877.09;5096085;28;19954;-75
2022/10/15 04:43:49;;;;;;;;;;;;;;;13.67;100.00;95883.66;5096222;28;20009;-74
2022/10/15 04:46:15;;;;;;;;;;;;;;;13.67;100.00;95875.75;5096215;28;19958;-75
2022/10/15 04:48:41;;;;;;;;;;;;;;;13.65;100.00;95876.03;5094846;28;19958;-74
2022/10/15 04:51:08;;;;;;;;;;;;;;;13.65;100.00;95877.84;5095829;28;19961;-75
2022/10/15 04:53:34;;;;;;;;;;;;;;;13.65;100.00;95883.09;5095815;28;19962;-74
2022/10/15 04:56:05;;;;;;;;;;;;;;;13.62;100.00;95894.16;5095561;28;20423;-75
2022/10/15 04:58:32;;;;;;;;;;;;;;;13.57;100.00;95890.44;5095461;28;19955;-74
2022/10/15 05:00:58;;;;;;;;;;;;;;;13.56;100.00;95891.47;5095572;28;19957;-74
2022/10/15 05:03:24;;;;;;;;;;;;;;;13.55;100.00;95895.16;5095494;28;20405;-74
2022/10/15 05:05:50;;;;;;;;;;;;;;;13.55;100.00;95899.63;5095514;28;20009;-74
2022/10/15 05:08:16;;;;;;;;;;;;;;;13.54;100.00;95898.84;5095564;28;20021;-74
2022/10/15 05:10:42;;;;;;;;;;;;;;;13.53;100.00;95905.16;5095527;28;20299;-74
2022/10/15 05:13:08;;;;;;;;;;;;;;;13.53;100.00;95910.41;5095280;28;19953;-74
2022/10/15 05:15:33;;;;;;;;;;;;;;;13.52;100.00;95908.84;5095337;28;19979;-75
2022/10/15 05:17:59;;;;;;;;;;;;;;;13.53;100.00;95915.69;5094934;28;20353;-74
2022/10/15 05:20:25;;;;;;;;;;;;;;;13.54;100.00;95911.22;5094104;28;19972;-74
2022/10/15 05:22:51;;;;;;;;;;;;;;;13.53;100.00;95909.63;5095065;28;19949;-74
2022/10/15 05:25:17;;;;;;;;;;;;;;;13.52;100.00;95919.38;5094608;28;19958;-74
2022/10/15 05:27:43;;;;;;;;;;;;;;;13.52;100.00;95924.66;5094845;28;19957;-75
2022/10/15 05:30:09;;;;;;;;;;;;;;;13.52;100.00;95923.81;5095126;28;20472;-74
2022/10/15 05:32:35;;;;;;;;;;;;;;;13.53;100.00;95922.81;5094195;28;19987;-74
2022/10/15 05:35:01;;;;;;;;;;;;;;;13.53;100.00;95935.97;5094966;28;20447;-74
2022/10/15 05:37:27;;;;;;;;;;;;;;;13.54;100.00;95937.53;5094753;28;19967;-74
2022/10/15 05:39:53;;;;;;;;;;;;;;;13.53;100.00;95939.41;5095172;28;20028;-74
2022/10/15 05:42:19;;;;;;;;;;;;;;;13.52;100.00;95948.34;5093572;28;19997;-74
2022/10/15 05:44:45;;;;;;;;;;;;;;;13.50;100.00;95953.06;5094635;28;19990;-74
2022/10/15 05:47:11;;;;;;;;;;;;;;;13.49;100.00;95948.84;5095065;28;20003;-74
2022/10/15 05:49:37;;;;;;;;;;;;;;;13.49;100.00;95950.69;5093317;28;20334;-75
2022/10/15 05:52:03;;;;;;;;;;;;;;;13.49;100.00;95955.94;5094804;28;19951;-74
2022/10/15 05:54:29;;;;;;;;;;;;;;;13.47;100.00;95950.91;5094605;28;20013;-75
2022/10/15 05:56:54;;;;;;;;;;;;;;;13.47;100.00;95943.03;5095082;28;20419;-74
2022/10/15 05:59:20;;;;;;;;;;;;;;;13.46;100.00;95948.53;5094904;28;20323;-74
2022/10/15 06:01:46;;;;;;;;;;;;;;;13.44;100.00;95954.06;5094660;28;19962;-74
2022/10/15 06:04:12;;;;;;;;;;;;;;;13.44;100.00;95958.50;5094334;28;19949;-75
2022/10/15 06:06:38;;;;;;;;;;;;;;;13.42;100.00;95955.34;5094556;28;20439;-74
2022/10/15 06:09:04;;;;;;;;;;;;;;;13.42;100.00;95957.97;5094451;28;20343;-74
2022/10/15 06:11:30;;;;;;;;;;;;;;;13.40;100.00;95963.50;5094337;28;19956;-74
2022/10/15 06:13:55;;;;;;;;;;;;;;;13.39;100.00;95967.16;5093567;28;20018;-74
2022/10/15 06:16:21;;;;;;;;;;;;;;;13.37;100.00;95958.72;5093937;28;19967;-74
2022/10/15 06:18:47;;;;;;;;;;;;;;;13.37;100.00;95961.34;5093808;28;19986;-74
2022/10/15 06:21:13;;;;;;;;;;;;;;;13.38;100.00;95969.00;5094113;28;19962;-74
2022/10/15 06:23:39;;;;;;;;;;;;;;;13.39;100.00;95969.78;5094053;28;20317;-74
2022/10/15 06:26:06;;;;;;;;;;;;;;;13.41;100.00;95978.25;5094409;28;19964;-74
2022/10/15 06:28:32;;;;;;;;;;;;;;;13.42;100.00;95981.66;5094077;28;20410;-74
2022/10/15 06:30:59;;;;;;;;;;;;;;;13.42;100.00;95981.66;5094014;28;19956;-74
2022/10/15 06:33:25;;;;;;;;;;;;;;;13.44;100.00;95990.94;5094144;28;19974;-74
2022/10/15 06:35:51;;;;;;;;;;;;;;;13.45;100.00;95991.72;5092982;28;19956;-74
2022/10/15 06:38:17;;;;;;;;;;;;;;;13.45;100.00;95992.53;5093772;28;20050;-75
2022/10/15 06:40:42;;;;;;;;;;;;;;;13.44;100.00;96001.47;5094450;28;19971;-74
2022/10/15 06:43:09;;;;;;;;;;;;;;;13.46;100.00;96009.94;5093887;28;20315;-74
2022/10/15 06:45:36;;;;;;;;;;;;;;;13.48;100.00;96014.94;5093764;28;19958;-75
2022/10/15 06:48:05;;;;;;;;;;;;;;;13.50;100.00;96018.94;5094026;28;19967;-74
2022/10/15 06:50:32;;;;;;;;;;;;;;;13.52;100.00;96022.13;5093645;28;20304;-74
2022/10/15 06:52:58;;;;;;;;;;;;;;;13.55;100.00;96026.09;5093512;28;19949;-74
2022/10/15 06:55:24;;;;;;;;;;;;;;;13.57;100.00;96031.91;5093516;28;20402;-74
2022/10/15 06:57:50;;;;;;;;;;;;;;;13.58;100.00;96034.28;5094006;28;20442;-75
2022/10/15 07:00:16;;;;;;;;;;;;;;;13.60;100.00;96037.47;5093645;28;19976;-74
2022/10/15 07:02:42;;;;;;;;;;;;;;;13.65;100.00;96043.81;5093672;28;19960;-74
2022/10/15 07:05:08;;;;;;;;;;;;;;;13.66;100.00;96040.94;5093604;28;19968;-74
2022/10/15 07:07:34;;;;;;;;;;;;;;;13.67;100.00;96057.56;5093433;28;19949;-74
2022/10/15 07:10:00;;;;;;;;;;;;;;;13.69;100.00;96058.09;5093398;28;20396;-74
2022/10/15 07:12:26;;;;;;;;;;;;;;;13.72;100.00;96055.00;5093449;28;19962;-75
2022/10/15 07:14:52;;;;;;;;;;;;;;;13.73;100.00;96049.47;5093783;28;19959;-74
2022/10/15 07:17:17;;;;;;;;;;;;;;;13.76;100.00;96066.63;5093157;28;20379;-75
2022/10/15 07:19:43;;;;;;;;;;;;;;;13.77;100.00;96061.13;5093140;28;20046;-75
2022/10/15 07:22:09;;;;;;;;;;;;;;;13.79;100.00;96063.50;5094041;28;19967;-75
2022/10/15 07:24:35;;;;;;;;;;;;;;;13.83;100.00;96061.94;5093289;28;19969;-75
2022/10/15 07:27:01;;;;;;;;;;;;;;;13.85;100.00;96057.22;5093810;28;20049;-75
2022/10/15 07:29:27;;;;;;;;;;;;;;;13.89;100.00;96057.53;5093352;28;19956;-75
2022/10/15 07:31:53;;;;;;;;;;;;;;;13.92;100.00;96057.84;5093398;28;19964;-74
2022/10/15 07:34:20;;;;;;;;;;;;;;;13.92;100.00;96065.75;5092703;28;19957;-75
2022/10/15 07:36:46;;;;;;;;;;;;;;;13.92;100.00;96062.31;5093262;28;19965;-75
2022/10/15 07:39:11;;;;;;;;;;;;;;;13.93;100.00;96059.44;5092140;28;19991;-75
2022/10/15 07:41:37;;;;;;;;;;;;;;;13.95;100.00;96070.53;5093056;28;20009;-74
2022/10/15 07:44:03;;;;;;;;;;;;;;;13.98;100.00;96070.03;5093117;28;19959;-74
2022/10/15 07:46:29;;;;;;;;;;;;;;;13.99;100.00;96068.19;5093583;28;20474;-74
2022/10/15 07:48:55;;;;;;;;;;;;;;;13.99;100.00;96070.81;5096639;28;19996;-74
2022/10/15 07:51:21;;;;;;;;;;;;;;;14.00;100.00;96065.28;5097242;28;19989;-74
2022/10/15 07:53:47;;;;;;;;;;;;;;;14.01;100.00;96060.84;5096769;28;20447;-74
2022/10/15 07:56:14;;;;;;;;;;;;;;;14.01;100.00;96061.63;5097319;28;19952;-74
2022/10/15 07:58:41;;;;;;;;;;;;;;;14.00;100.00;96070.56;5096714;28;19972;-74
2022/10/15 08:01:08;;;;;;;;;;;;;;;13.98;100.00;96070.03;5096724;28;19955;-74
2022/10/15 08:03:35;;;;;;;;;;;;;;;14.00;100.00;96070.56;5096392;28;19955;-74
2022/10/15 08:06:02;;;;;;;;;;;;;;;14.01;100.00;96074.00;5095689;28;19948;-74
2022/10/15 08:08:28;;;;;;;;;;;;;;;14.04;100.00;96081.41;5096615;28;19957;-74
2022/10/15 08:10:54;;;;;;;;;;;;;;;14.10;100.00;96069.09;5096516;28;19975;-74
2022/10/15 08:13:20;;;;;;;;;;;;;;;14.14;100.00;96076.25;5096354;28;20064;-74
2022/10/15 08:15:46;;;;;;;;;;;;;;;14.19;100.00;96072.84;5096367;28;19964;-74
2022/10/15 08:18:12;;;;;;;;;;;;;;;14.26;100.00;96070.00;5095722;28;19989;-75
2022/10/15 08:20:38;;;;;;;;;;;;;;;14.33;100.00;96065.34;5096447;28;20486;-74
2022/10/15 08:23:05;;;;;;;;;;;;;;;14.38;100.00;96063.53;5095760;28;19957;-75
2022/10/15 08:25:31;;;;;;;;;;;;;;;14.44;100.00;96059.09;5096592;28;19958;-74
2022/10/15 08:27:57;;;;;;;;;;;;;;;14.52;100.00;96063.91;5096196;28;19971;-75
2022/10/15 08:30:23;;;;;;;;;;;;;;;14.57;100.00;96063.19;5095708;28;19948;-74
2022/10/15 08:32:49;;;;;;;;;;;;;;;14.59;100.00;96059.25;5096433;28;19957;-74
2022/10/15 08:35:15;;;;;;;;;;;;;;;14.61;100.00;96059.81;5095959;28;19954;-75
2022/10/15 08:37:41;;;;;;;;;;;;;;;14.66;100.00;96074.06;5096620;28;20486;-74
2022/10/15 08:40:08;;;;;;;;;;;;;;;14.69;100.00;96077.00;5095991;28;19999;-74
2022/10/15 08:42:39;;;;;;;;;;;;;;;14.72;100.00;96076.50;5096012;28;19950;-74
2022/10/15 08:45:25;;;;;;;;;;;;;;;14.72;100.00;96079.16;5095990;28;19951;-74
2022/10/15 08:47:57;;;;;;;;;;;;;;;14.74;100.00;96086.78;5095354;28;19962;-74
2022/10/15 08:50:33;;;;;;;;;;;;;;;14.75;100.00;96075.97;5095973;28;19956;-75
2022/10/15 08:52:59;;;;;;;;;;;;;;;14.78;100.00;96087.88;5087788;28;19955;-74
2022/10/15 08:55:34;;;;;;;;;;;;;;;14.83;100.00;96087.94;5095710;28;19954;-75
2022/10/15 08:58:16;;;;;;;;;;;;;;;14.89;100.00;96094.84;5078836;28;19974;-74
2022/10/15 09:00:42;;;;;;;;;;;;;;;14.96;100.00;96097.25;5095683;28;19968;-74
2022/10/15 09:03:17;;;;;;;;;;;;;;;15.01;100.00;96097.28;5095822;28;20431;-74
2022/10/15 09:05:58;;;;;;;;;;;;;;;15.06;100.00;96096.53;5094166;28;20415;-74
2022/10/15 09:08:24;;;;;;;;;;;;;;;15.10;100.00;96093.13;5095347;28;19952;-74
2022/10/15 09:10:56;;;;;;;;;;;;;;;15.14;100.00;96091.56;5095673;28;20316;-74
2022/10/15 09:13:27;;;;;;;;;;;;;;;15.19;100.00;96101.34;5095296;28;19947;-74
2022/10/15 09:15:57;;;;;;;;;;;;;;;15.22;100.00;96096.38;5095238;28;19952;-74
2022/10/15 09:18:24;;;;;;;;;;;;;;;15.27;100.00;96102.72;5094828;28;19986;-74
2022/10/15 09:20:51;;;;;;;;;;;;;;;15.30;100.00;96102.22;5095649;28;19963;-74
2022/10/15 09:23:19;;;;;;;;;;;;;;;15.34;100.00;96098.00;5094192;28;19966;-74
2022/10/15 09:25:49;;;;;;;;;;;;;;;15.42;100.00;96102.81;5094982;28;19955;-74
2022/10/15 09:28:17;;;;;;;;;;;;;;;15.49;100.00;96097.28;5095012;28;20439;-75
2022/10/15 09:30:48;;;;;;;;;;;;;;;15.51;100.00;96100.47;5094185;28;19953;-75
2022/10/15 09:33:14;;;;;;;;;;;;;;;15.52;100.00;96102.06;5094887;28;20454;-75
2022/10/15 09:35:40;;;;;;;;;;;;;;;15.54;100.00;96118.44;5094667;28;19950;-74
2022/10/15 09:38:19;;;;;;;;;;;;;;;15.57;100.00;96123.22;5094762;28;19971;-74
2022/10/15 09:41:15;;;;;;;;;;;;;;;15.59;100.00;96129.84;5095145;28;19955;-75
2022/10/15 09:43:43;;;;;;;;;;;;;;;15.63;100.00;96127.47;5094878;28;19953;-74
2022/10/15 09:46:09;;;;;;;;;;;;;;;15.73;100.00;96127.56;5094556;28;19958;-74
2022/10/15 09:48:40;;;;;;;;;;;;;;;15.84;100.00;96123.09;5094982;28;19964;-75
2022/10/15 09:51:10;;;;;;;;;;;;;;;15.93;100.00;96118.91;5094665;28;19961;-75
2022/10/15 09:53:44;;;;;;;;;;;;;;;15.98;100.00;96120.75;5094861;28;19964;-75
2022/10/15 09:56:14;;;;;;;;;;;;;;;16.09;100.00;96105.72;5094713;28;19958;-75
2022/10/15 09:58:43;;;;;;;;;;;;;;;16.22;100.00;96132.47;5094681;28;19969;-75
2022/10/15 10:01:16;;;;;;;;;;;;;;;16.42;100.00;96131.72;5094495;28;19955;-75
2022/10/15 10:03:42;;;;;;;;;;;;;;;16.60;100.00;96125.09;5094540;28;19965;-75
2022/10/15 10:06:12;;;;;;;;;;;;;;;16.75;100.00;96134.91;5094301;28;19961;-75
2022/10/15 10:08:40;;;;;;;;;;;;;;;16.88;100.00;96133.63;5094083;28;19964;-75
2022/10/15 10:11:08;;;;;;;;;;;;;;;17.04;100.00;96132.53;5094538;28;20370;-75
2022/10/15 10:13:34;;;;;;;;;;;;;;;17.12;100.00;96130.44;5094118;28;19970;-75
2022/10/15 10:16:05;;;;;;;;;;;;;;;17.15;100.00;96133.34;5094566;28;19956;-75
2022/10/15 10:18:31;;;;;;;;;;;;;;;17.18;100.00;96140.75;5093931;28;20422;-75
2022/10/15 10:21:00;;;;;;;;;;;;;;;17.15;100.00;96129.88;5094134;28;20409;-75
2022/10/15 10:23:33;;;;;;;;;;;;;;;17.20;100.00;96140.50;5094003;28;19956;-75
2022/10/15 10:26:04;;;;;;;;;;;;;;;17.23;100.00;96140.75;5094176;28;20333;-76
2022/10/15 10:28:32;;;;;;;;;;;;;;;17.23;100.00;96134.66;5094056;28;20023;-76
2022/10/15 10:31:02;;;;;;;;;;;;;;;17.29;100.00;96148.69;5093901;28;19960;-76
2022/10/15 10:33:48;;;;;;;;;;;;;;;17.34;98.81;96143.38;5093881;28;19956;-76
2022/10/15 10:36:23;;;;;;;;;;;;;;;17.40;98.39;96145.75;5094169;28;19949;-76
2022/10/15 10:38:55;;;;;;;;;;;;;;;17.40;99.27;96155.56;5093796;28;19979;-76
2022/10/15 10:41:21;;;;;;;;;;;;;;;17.31;95.22;96147.38;5093749;28;20301;-76
2022/10/15 10:43:54;;;;;;;;;;;;;;;17.24;97.73;96166.19;5093797;28;19977;-76
2022/10/15 10:46:22;;;;;;;;;;;;;;;17.21;94.93;96150.81;5093847;28;19954;-76
2022/10/15 10:48:49;;;;;;;;;;;;;;;17.18;97.82;96151.34;5093824;28;19968;-76
2022/10/15 10:51:17;;;;;;;;;;;;;;;17.15;98.55;96151.88;5093966;28;19954;-76
2022/10/15 10:53:43;;;;;;;;;;;;;;;17.08;97.78;96156.66;5093782;28;19964;-76
2022/10/15 10:56:12;;;;;;;;;;;;;;;17.02;94.10;96147.13;5093731;28;19953;-76
2022/10/15 10:58:38;;;;;;;;;;;;;;;16.95;94.79;96152.69;5093992;28;19973;-76
2022/10/15 11:01:04;;;;;;;;;;;;;;;16.86;96.69;96158.78;5094055;28;20374;-76
2022/10/15 11:03:38;;;;;;;;;;;;;;;16.84;95.99;96145.81;5093507;28;19964;-76
2022/10/15 11:06:15;;;;;;;;;;;;;;;16.82;96.04;96153.25;5093735;28;19950;-76
2022/10/15 11:08:41;;;;;;;;;;;;;;;16.80;98.77;96150.03;5093247;28;19951;-76
2022/10/15 11:11:07;;;;;;;;;;;;;;;16.81;97.70;96138.41;5093670;28;19956;-76
2022/10/15 11:13:52;;;;;;;;;;;;;;;16.81;96.67;96141.81;5093446;28;20429;-76
2022/10/15 11:16:32;;;;;;;;;;;;;;;16.82;100.00;96145.28;5093529;28;20324;-76
2022/10/15 11:19:17;;;;;;;;;;;;;;;16.86;97.78;96138.38;5093005;28;19980;-76
2022/10/15 11:21:42;;;;;;;;;;;;;;;16.89;97.25;96143.16;5094310;28;20411;-76
2022/10/15 11:24:12;;;;;;;;;;;;;;;16.90;96.57;96138.66;5097395;28;19966;-76
2022/10/15 11:26:40;;;;;;;;;;;;;;;16.92;97.40;96139.97;5097133;28;20428;-76
2022/10/15 11:29:15;;;;;;;;;;;;;;;17.00;100.00;96149.25;5097328;28;20420;-76
2022/10/15 11:31:50;;;;;;;;;;;;;;;17.06;96.26;96128.84;5097509;28;19967;-76
2022/10/15 11:34:19;;;;;;;;;;;;;;;17.08;93.86;96124.09;5097291;28;20373;-76
2022/10/15 11:36:57;;;;;;;;;;;;;;;16.99;90.64;96121.19;5097418;28;19955;-76
2022/10/15 11:39:35;;;;;;;;;;;;;;;16.93;91.31;96120.38;5097272;28;19972;-76
2022/10/15 11:42:07;;;;;;;;;;;;;;;16.98;94.39;96130.97;5097295;28;20327;-76
2022/10/15 11:44:55;;;;;;;;;;;;;;;17.04;93.87;96118.53;5097257;28;20295;-76
2022/10/15 11:47:33;;;;;;;;;;;;;;;17.09;96.38;96128.31;5089017;28;19956;-76
2022/10/15 11:49:59;;;;;;;;;;;;;;;17.12;90.49;96099.44;5096833;28;19959;-76
2022/10/15 11:52:30;;;;;;;;;;;;;;;17.14;91.25;96099.97;5097207;28;19949;-76
2022/10/15 11:55:02;;;;;;;;;;;;;;;17.14;90.01;96076.13;5097107;28;19948;-76
2022/10/15 11:57:31;;;;;;;;;;;;;;;17.12;90.60;96096.78;5095583;28;20322;-76
2022/10/15 12:00:00;;;;;;;;;;;;;;;17.10;90.08;96085.66;5096293;28;19973;-76
2022/10/15 12:02:32;;;;;;;;;;;;;;;17.13;91.21;96089.63;5096427;28;19952;-76
2022/10/15 12:05:05;;;;;;;;;;;;;;;17.16;89.65;96081.16;5096833;28;19962;-76
2022/10/15 12:07:39;;;;;;;;;;;;;;;17.19;89.25;96084.03;5097574;28;19947;-76
2022/10/15 12:10:11;;;;;;;;;;;;;;;17.19;87.40;96065.50;5096946;28;19959;-76
2022/10/15 12:12:37;;;;;;;;;;;;;;;17.20;90.39;96076.91;5096203;28;19950;-76
2022/10/15 12:15:12;;;;;;;;;;;;;;;17.30;87.90;96063.59;5096547;28;20302;-76
2022/10/15 12:17:41;;;;;;;;;;;;;;;17.40;88.69;96090.06;5096355;28;19976;-76
2022/10/15 12:20:18;;;;;;;;;;;;;;;17.45;84.30;96049.53;5096354;28;20316;-76
2022/10/15 12:22:47;;;;;;;;;;;;;;;17.49;87.80;96074.44;5096851;28;20414;-76
2022/10/15 12:25:31;;;;;;;;;;;;;;;17.53;87.55;96077.31;5095134;28;19962;-76
2022/10/15 12:27:58;;;;;;;;;;;;;;;17.56;85.13;96059.00;5096203;28;19951;-76
2022/10/15 12:30:25;;;;;;;;;;;;;;;17.56;86.99;96074.94;5096475;28;20406;-76
2022/10/15 12:32:52;;;;;;;;;;;;;;;17.48;85.17;96069.41;5095364;28;19962;-76
2022/10/15 12:35:22;;;;;;;;;;;;;;;17.43;87.68;96092.19;5096001;28;20317;-76
2022/10/15 12:37:49;;;;;;;;;;;;;;;17.37;87.33;96089.84;5096174;28;19973;-76
2022/10/15 12:40:21;;;;;;;;;;;;;;;17.31;86.99;96089.06;5096296;28;19953;-76
2022/10/15 12:42:51;;;;;;;;;;;;;;;17.22;87.18;96082.72;5095377;28;19949;-76
2022/10/15 12:45:27;;;;;;;;;;;;;;;17.19;88.12;96081.38;5095981;28;19952;-76